sensor_id;sensor_type;location;lat;lon;timestamp;P1;durP1;ratioP1;P2;durP2;ratioP2
17127;SDS011;8679;50.842;4.322;2023-06-22T00:00:51;1.40;;;1.10;;
17127;SDS011;8679;50.842;4.322;2023-06-22T00:03:18;1.88;;;1.13;;
17127;SDS011;8679;50.842;4.322;2023-06-22T00:05:44;2.45;;;1.05;;
17127;SDS011;8679;50.842;4.322;2023-06-22T00:08:11;1.45;;;1.02;;
17127;SDS011;8679;50.842;4.322;2023-06-22T00:10:37;0.70;;;0.60;;
17127;SDS011;8679;50.842;4.322;2023-06-22T00:13:03;1.83;;;1.00;;
17127;SDS011;8679;50.842;4.322;2023-06-22T00:15:29;3.97;;;1.27;;
17127;SDS011;8679;50.842;4.322;2023-06-22T00:17:55;1.92;;;1.40;;
17127;SDS011;8679;50.842;4.322;2023-06-22T00:20:22;1.20;;;1.00;;
17127;SDS011;8679;50.842;4.322;2023-06-22T00:22:48;2.90;;;1.42;;
17127;SDS011;8679;50.842;4.322;2023-06-22T00:25:14;1.23;;;1.10;;
17127;SDS011;8679;50.842;4.322;2023-06-22T00:27:39;1.52;;;1.10;;
17127;SDS011;8679;50.842;4.322;2023-06-22T00:30:05;1.65;;;0.95;;
17127;SDS011;8679;50.842;4.322;2023-06-22T00:32:31;1.48;;;1.15;;
17127;SDS011;8679;50.842;4.322;2023-06-22T00:34:57;1.25;;;1.15;;
17127;SDS011;8679;50.842;4.322;2023-06-22T00:37:23;1.85;;;1.27;;
17127;SDS011;8679;50.842;4.322;2023-06-22T00:39:50;1.25;;;1.15;;
17127;SDS011;8679;50.842;4.322;2023-06-22T00:42:17;2.10;;;1.15;;
17127;SDS011;8679;50.842;4.322;2023-06-22T00:44:43;1.83;;;1.20;;
17127;SDS011;8679;50.842;4.322;2023-06-22T00:47:10;2.28;;;1.63;;
17127;SDS011;8679;50.842;4.322;2023-06-22T00:49:38;1.40;;;1.27;;
17127;SDS011;8679;50.842;4.322;2023-06-22T00:52:04;2.80;;;1.08;;
17127;SDS011;8679;50.842;4.322;2023-06-22T00:54:34;2.47;;;1.17;;
17127;SDS011;8679;50.842;4.322;2023-06-22T00:57:01;1.60;;;1.10;;
17127;SDS011;8679;50.842;4.322;2023-06-22T00:59:27;3.00;;;1.13;;
17127;SDS011;8679;50.842;4.322;2023-06-22T01:01:54;1.52;;;1.13;;
17127;SDS011;8679;50.842;4.322;2023-06-22T01:04:23;1.13;;;0.98;;
17127;SDS011;8679;50.842;4.322;2023-06-22T01:07:02;2.33;;;1.17;;
17127;SDS011;8679;50.842;4.322;2023-06-22T01:09:38;2.10;;;1.00;;
17127;SDS011;8679;50.842;4.322;2023-06-22T01:12:32;3.33;;;0.93;;
17127;SDS011;8679;50.842;4.322;2023-06-22T01:17:46;1.48;;;1.00;;
17127;SDS011;8679;50.842;4.322;2023-06-22T01:20:13;2.65;;;1.50;;
17127;SDS011;8679;50.842;4.322;2023-06-22T01:26:02;1.60;;;0.93;;
17127;SDS011;8679;50.842;4.322;2023-06-22T01:31:07;1.50;;;1.13;;
17127;SDS011;8679;50.842;4.322;2023-06-22T01:33:37;1.35;;;1.00;;
17127;SDS011;8679;50.842;4.322;2023-06-22T01:36:05;1.30;;;1.00;;
17127;SDS011;8679;50.842;4.322;2023-06-22T01:38:32;2.47;;;1.35;;
17127;SDS011;8679;50.842;4.322;2023-06-22T01:40:59;1.73;;;1.25;;
17127;SDS011;8679;50.842;4.322;2023-06-22T01:43:26;1.65;;;0.90;;
17127;SDS011;8679;50.842;4.322;2023-06-22T01:45:54;1.35;;;1.00;;
17127;SDS011;8679;50.842;4.322;2023-06-22T01:48:23;1.95;;;1.35;;
17127;SDS011;8679;50.842;4.322;2023-06-22T01:50:51;1.77;;;0.98;;
17127;SDS011;8679;50.842;4.322;2023-06-22T01:53:20;2.22;;;1.40;;
17127;SDS011;8679;50.842;4.322;2023-06-22T01:55:47;1.23;;;1.00;;
17127;SDS011;8679;50.842;4.322;2023-06-22T01:58:13;1.63;;;0.90;;
17127;SDS011;8679;50.842;4.322;2023-06-22T02:00:39;2.03;;;1.27;;
17127;SDS011;8679;50.842;4.322;2023-06-22T02:03:10;1.40;;;1.20;;
17127;SDS011;8679;50.842;4.322;2023-06-22T02:05:45;0.85;;;0.60;;
17127;SDS011;8679;50.842;4.322;2023-06-22T02:08:22;2.40;;;1.20;;
17127;SDS011;8679;50.842;4.322;2023-06-22T02:10:54;1.20;;;0.77;;
17127;SDS011;8679;50.842;4.322;2023-06-22T02:13:23;2.38;;;1.17;;
17127;SDS011;8679;50.842;4.322;2023-06-22T02:15:50;1.63;;;0.93;;
17127;SDS011;8679;50.842;4.322;2023-06-22T02:18:16;1.60;;;1.30;;
17127;SDS011;8679;50.842;4.322;2023-06-22T02:20:42;1.05;;;0.93;;
17127;SDS011;8679;50.842;4.322;2023-06-22T02:23:08;1.73;;;1.08;;
17127;SDS011;8679;50.842;4.322;2023-06-22T02:25:34;1.17;;;0.88;;
17127;SDS011;8679;50.842;4.322;2023-06-22T02:28:00;2.90;;;0.95;;
17127;SDS011;8679;50.842;4.322;2023-06-22T02:30:26;3.03;;;1.83;;
17127;SDS011;8679;50.842;4.322;2023-06-22T02:32:52;1.50;;;0.95;;
17127;SDS011;8679;50.842;4.322;2023-06-22T02:35:27;3.72;;;1.33;;
17127;SDS011;8679;50.842;4.322;2023-06-22T02:37:57;1.67;;;1.30;;
17127;SDS011;8679;50.842;4.322;2023-06-22T02:40:27;1.67;;;0.90;;
17127;SDS011;8679;50.842;4.322;2023-06-22T02:42:54;1.52;;;1.15;;
17127;SDS011;8679;50.842;4.322;2023-06-22T02:45:20;2.47;;;1.25;;
17127;SDS011;8679;50.842;4.322;2023-06-22T02:47:46;1.25;;;1.00;;
17127;SDS011;8679;50.842;4.322;2023-06-22T02:50:13;2.05;;;1.38;;
17127;SDS011;8679;50.842;4.322;2023-06-22T02:52:39;1.23;;;1.10;;
17127;SDS011;8679;50.842;4.322;2023-06-22T02:55:05;1.00;;;0.88;;
17127;SDS011;8679;50.842;4.322;2023-06-22T02:57:32;1.35;;;1.00;;
17127;SDS011;8679;50.842;4.322;2023-06-22T02:59:58;1.63;;;1.10;;
17127;SDS011;8679;50.842;4.322;2023-06-22T03:02:24;1.85;;;1.27;;
17127;SDS011;8679;50.842;4.322;2023-06-22T03:04:51;1.70;;;1.30;;
17127;SDS011;8679;50.842;4.322;2023-06-22T03:07:18;2.83;;;1.38;;
17127;SDS011;8679;50.842;4.322;2023-06-22T03:09:45;2.03;;;1.23;;
17127;SDS011;8679;50.842;4.322;2023-06-22T03:12:10;1.20;;;1.10;;
17127;SDS011;8679;50.842;4.322;2023-06-22T03:14:36;1.63;;;1.08;;
17127;SDS011;8679;50.842;4.322;2023-06-22T03:17:04;1.13;;;0.90;;
17127;SDS011;8679;50.842;4.322;2023-06-22T03:19:30;1.65;;;1.10;;
17127;SDS011;8679;50.842;4.322;2023-06-22T03:21:59;1.50;;;1.02;;
17127;SDS011;8679;50.842;4.322;2023-06-22T03:24:25;2.53;;;1.70;;
17127;SDS011;8679;50.842;4.322;2023-06-22T03:26:53;2.38;;;1.27;;
17127;SDS011;8679;50.842;4.322;2023-06-22T03:29:20;2.28;;;1.15;;
17127;SDS011;8679;50.842;4.322;2023-06-22T03:31:45;1.63;;;1.42;;
17127;SDS011;8679;50.842;4.322;2023-06-22T03:34:11;3.10;;;1.30;;
17127;SDS011;8679;50.842;4.322;2023-06-22T03:36:37;2.38;;;1.50;;
17127;SDS011;8679;50.842;4.322;2023-06-22T03:39:02;1.70;;;1.20;;
17127;SDS011;8679;50.842;4.322;2023-06-22T03:41:28;2.38;;;1.50;;
17127;SDS011;8679;50.842;4.322;2023-06-22T03:43:53;2.08;;;1.27;;
17127;SDS011;8679;50.842;4.322;2023-06-22T03:46:19;0.95;;;0.80;;
17127;SDS011;8679;50.842;4.322;2023-06-22T03:48:45;2.83;;;1.40;;
17127;SDS011;8679;50.842;4.322;2023-06-22T03:51:11;1.13;;;0.88;;
17127;SDS011;8679;50.842;4.322;2023-06-22T03:53:36;1.88;;;1.15;;
17127;SDS011;8679;50.842;4.322;2023-06-22T03:56:02;3.20;;;1.63;;
17127;SDS011;8679;50.842;4.322;2023-06-22T03:58:28;1.08;;;0.98;;
17127;SDS011;8679;50.842;4.322;2023-06-22T04:00:57;1.23;;;1.05;;
17127;SDS011;8679;50.842;4.322;2023-06-22T04:03:25;3.80;;;1.63;;
17127;SDS011;8679;50.842;4.322;2023-06-22T04:05:50;1.77;;;1.40;;
17127;SDS011;8679;50.842;4.322;2023-06-22T04:08:16;1.42;;;1.02;;
17127;SDS011;8679;50.842;4.322;2023-06-22T04:10:43;1.63;;;1.40;;
17127;SDS011;8679;50.842;4.322;2023-06-22T04:13:09;1.92;;;1.38;;
17127;SDS011;8679;50.842;4.322;2023-06-22T04:15:34;4.57;;;1.98;;
17127;SDS011;8679;50.842;4.322;2023-06-22T04:18:00;2.97;;;1.63;;
17127;SDS011;8679;50.842;4.322;2023-06-22T04:20:26;2.85;;;2.08;;
17127;SDS011;8679;50.842;4.322;2023-06-22T04:22:54;1.83;;;1.38;;
17127;SDS011;8679;50.842;4.322;2023-06-22T04:25:20;3.40;;;1.85;;
17127;SDS011;8679;50.842;4.322;2023-06-22T04:27:47;2.60;;;1.70;;
17127;SDS011;8679;50.842;4.322;2023-06-22T04:30:13;3.95;;;1.92;;
17127;SDS011;8679;50.842;4.322;2023-06-22T04:32:41;3.83;;;2.35;;
17127;SDS011;8679;50.842;4.322;2023-06-22T04:35:07;2.42;;;1.95;;
17127;SDS011;8679;50.842;4.322;2023-06-22T04:37:33;3.95;;;2.20;;
17127;SDS011;8679;50.842;4.322;2023-06-22T04:39:59;4.75;;;1.55;;
17127;SDS011;8679;50.842;4.322;2023-06-22T04:42:27;2.58;;;1.85;;
17127;SDS011;8679;50.842;4.322;2023-06-22T04:44:53;3.00;;;1.90;;
17127;SDS011;8679;50.842;4.322;2023-06-22T04:47:19;5.05;;;2.40;;
17127;SDS011;8679;50.842;4.322;2023-06-22T04:49:45;2.58;;;1.90;;
17127;SDS011;8679;50.842;4.322;2023-06-22T04:52:11;3.13;;;1.98;;
17127;SDS011;8679;50.842;4.322;2023-06-22T04:54:38;2.15;;;1.52;;
17127;SDS011;8679;50.842;4.322;2023-06-22T04:57:12;4.07;;;2.30;;
17127;SDS011;8679;50.842;4.322;2023-06-22T04:59:38;4.88;;;1.95;;
17127;SDS011;8679;50.842;4.322;2023-06-22T05:02:04;2.78;;;1.88;;
17127;SDS011;8679;50.842;4.322;2023-06-22T05:04:31;4.90;;;2.17;;
17127;SDS011;8679;50.842;4.322;2023-06-22T05:06:57;2.63;;;1.92;;
17127;SDS011;8679;50.842;4.322;2023-06-22T05:09:25;3.38;;;1.70;;
17127;SDS011;8679;50.842;4.322;2023-06-22T05:11:50;2.40;;;1.88;;
17127;SDS011;8679;50.842;4.322;2023-06-22T05:14:16;4.90;;;2.55;;
17127;SDS011;8679;50.842;4.322;2023-06-22T05:16:43;2.80;;;1.95;;
17127;SDS011;8679;50.842;4.322;2023-06-22T05:19:10;4.15;;;2.00;;
17127;SDS011;8679;50.842;4.322;2023-06-22T05:21:36;3.28;;;2.33;;
17127;SDS011;8679;50.842;4.322;2023-06-22T05:24:02;4.80;;;2.30;;
17127;SDS011;8679;50.842;4.322;2023-06-22T05:26:31;5.55;;;2.80;;
17127;SDS011;8679;50.842;4.322;2023-06-22T05:28:59;3.42;;;2.08;;
17127;SDS011;8679;50.842;4.322;2023-06-22T05:31:25;3.90;;;2.35;;
17127;SDS011;8679;50.842;4.322;2023-06-22T05:33:52;3.60;;;2.15;;
17127;SDS011;8679;50.842;4.322;2023-06-22T05:36:18;4.53;;;2.42;;
17127;SDS011;8679;50.842;4.322;2023-06-22T05:38:51;7.30;;;3.80;;
17127;SDS011;8679;50.842;4.322;2023-06-22T05:41:17;19.80;;;10.05;;
17127;SDS011;8679;50.842;4.322;2023-06-22T05:43:43;5.43;;;3.17;;
17127;SDS011;8679;50.842;4.322;2023-06-22T05:46:09;4.60;;;2.40;;
17127;SDS011;8679;50.842;4.322;2023-06-22T05:48:35;4.47;;;2.58;;
17127;SDS011;8679;50.842;4.322;2023-06-22T05:51:00;5.05;;;2.85;;
17127;SDS011;8679;50.842;4.322;2023-06-22T05:53:26;2.42;;;2.10;;
17127;SDS011;8679;50.842;4.322;2023-06-22T05:55:52;4.18;;;2.53;;
17127;SDS011;8679;50.842;4.322;2023-06-22T05:58:18;3.80;;;2.97;;
17127;SDS011;8679;50.842;4.322;2023-06-22T06:00:43;4.72;;;2.67;;
17127;SDS011;8679;50.842;4.322;2023-06-22T06:03:09;3.15;;;2.60;;
17127;SDS011;8679;50.842;4.322;2023-06-22T06:05:36;3.88;;;2.78;;
17127;SDS011;8679;50.842;4.322;2023-06-22T06:08:03;12.77;;;3.20;;
17127;SDS011;8679;50.842;4.322;2023-06-22T06:10:30;4.35;;;2.60;;
17127;SDS011;8679;50.842;4.322;2023-06-22T06:12:57;8.30;;;4.80;;
17127;SDS011;8679;50.842;4.322;2023-06-22T06:15:23;10.90;;;6.22;;
17127;SDS011;8679;50.842;4.322;2023-06-22T06:17:49;6.68;;;4.82;;
17127;SDS011;8679;50.842;4.322;2023-06-22T06:20:23;5.15;;;2.50;;
17127;SDS011;8679;50.842;4.322;2023-06-22T06:22:49;5.18;;;2.85;;
17127;SDS011;8679;50.842;4.322;2023-06-22T06:25:16;4.60;;;3.13;;
17127;SDS011;8679;50.842;4.322;2023-06-22T06:27:43;3.60;;;2.92;;
17127;SDS011;8679;50.842;4.322;2023-06-22T06:30:11;4.40;;;2.70;;
17127;SDS011;8679;50.842;4.322;2023-06-22T06:32:37;7.65;;;2.75;;
17127;SDS011;8679;50.842;4.322;2023-06-22T06:35:07;6.68;;;3.83;;
17127;SDS011;8679;50.842;4.322;2023-06-22T06:37:37;7.07;;;4.68;;
17127;SDS011;8679;50.842;4.322;2023-06-22T06:40:05;3.60;;;2.88;;
17127;SDS011;8679;50.842;4.322;2023-06-22T06:42:35;5.95;;;4.22;;
17127;SDS011;8679;50.842;4.322;2023-06-22T06:45:04;6.05;;;3.05;;
17127;SDS011;8679;50.842;4.322;2023-06-22T06:47:30;5.10;;;2.53;;
17127;SDS011;8679;50.842;4.322;2023-06-22T06:49:56;5.70;;;3.45;;
17127;SDS011;8679;50.842;4.322;2023-06-22T06:52:21;6.22;;;3.00;;
17127;SDS011;8679;50.842;4.322;2023-06-22T06:54:47;4.25;;;2.65;;
17127;SDS011;8679;50.842;4.322;2023-06-22T06:57:13;4.03;;;2.78;;
17127;SDS011;8679;50.842;4.322;2023-06-22T06:59:40;4.03;;;2.85;;
17127;SDS011;8679;50.842;4.322;2023-06-22T07:02:06;3.65;;;2.50;;
17127;SDS011;8679;50.842;4.322;2023-06-22T07:04:31;3.67;;;2.60;;
17127;SDS011;8679;50.842;4.322;2023-06-22T07:06:58;8.00;;;4.30;;
17127;SDS011;8679;50.842;4.322;2023-06-22T07:09:26;4.88;;;3.25;;
17127;SDS011;8679;50.842;4.322;2023-06-22T07:11:52;6.40;;;4.25;;
17127;SDS011;8679;50.842;4.322;2023-06-22T07:14:17;6.85;;;4.00;;
17127;SDS011;8679;50.842;4.322;2023-06-22T07:16:43;5.30;;;3.03;;
17127;SDS011;8679;50.842;4.322;2023-06-22T07:19:11;5.25;;;3.42;;
17127;SDS011;8679;50.842;4.322;2023-06-22T07:21:38;5.43;;;3.30;;
17127;SDS011;8679;50.842;4.322;2023-06-22T07:24:04;5.57;;;3.20;;
17127;SDS011;8679;50.842;4.322;2023-06-22T07:26:33;4.40;;;2.78;;
17127;SDS011;8679;50.842;4.322;2023-06-22T07:28:59;5.28;;;3.20;;
17127;SDS011;8679;50.842;4.322;2023-06-22T07:31:25;4.35;;;3.30;;
17127;SDS011;8679;50.842;4.322;2023-06-22T07:33:51;5.53;;;2.70;;
17127;SDS011;8679;50.842;4.322;2023-06-22T07:36:29;4.55;;;3.17;;
17127;SDS011;8679;50.842;4.322;2023-06-22T07:38:55;6.00;;;3.88;;
17127;SDS011;8679;50.842;4.322;2023-06-22T07:41:24;5.93;;;3.10;;
17127;SDS011;8679;50.842;4.322;2023-06-22T07:43:50;4.70;;;3.28;;
17127;SDS011;8679;50.842;4.322;2023-06-22T07:46:16;7.05;;;3.85;;
17127;SDS011;8679;50.842;4.322;2023-06-22T07:48:41;6.47;;;2.95;;
17127;SDS011;8679;50.842;4.322;2023-06-22T07:51:09;11.18;;;6.68;;
17127;SDS011;8679;50.842;4.322;2023-06-22T07:53:37;7.97;;;4.85;;
17127;SDS011;8679;50.842;4.322;2023-06-22T07:56:05;4.88;;;3.40;;
17127;SDS011;8679;50.842;4.322;2023-06-22T07:58:32;5.30;;;3.33;;
17127;SDS011;8679;50.842;4.322;2023-06-22T08:00:58;4.13;;;3.00;;
17127;SDS011;8679;50.842;4.322;2023-06-22T08:03:27;4.35;;;2.97;;
17127;SDS011;8679;50.842;4.322;2023-06-22T08:05:56;5.80;;;3.72;;
17127;SDS011;8679;50.842;4.322;2023-06-22T08:08:24;3.88;;;2.45;;
17127;SDS011;8679;50.842;4.322;2023-06-22T08:10:58;3.95;;;2.60;;
17127;SDS011;8679;50.842;4.322;2023-06-22T08:13:23;4.68;;;2.88;;
17127;SDS011;8679;50.842;4.322;2023-06-22T08:15:49;6.57;;;3.75;;
17127;SDS011;8679;50.842;4.322;2023-06-22T08:18:15;2.85;;;2.28;;
17127;SDS011;8679;50.842;4.322;2023-06-22T08:20:41;4.50;;;2.88;;
17127;SDS011;8679;50.842;4.322;2023-06-22T08:23:07;3.90;;;2.22;;
17127;SDS011;8679;50.842;4.322;2023-06-22T08:25:36;3.95;;;2.45;;
17127;SDS011;8679;50.842;4.322;2023-06-22T08:28:03;4.32;;;3.30;;
17127;SDS011;8679;50.842;4.322;2023-06-22T08:30:29;4.28;;;2.60;;
17127;SDS011;8679;50.842;4.322;2023-06-22T08:32:55;5.47;;;2.92;;
17127;SDS011;8679;50.842;4.322;2023-06-22T08:35:22;5.43;;;3.50;;
17127;SDS011;8679;50.842;4.322;2023-06-22T08:37:48;4.63;;;2.97;;
17127;SDS011;8679;50.842;4.322;2023-06-22T08:40:20;7.47;;;2.90;;
17127;SDS011;8679;50.842;4.322;2023-06-22T08:42:46;6.47;;;3.40;;
17127;SDS011;8679;50.842;4.322;2023-06-22T08:45:13;5.90;;;3.47;;
17127;SDS011;8679;50.842;4.322;2023-06-22T08:47:39;12.90;;;6.70;;
17127;SDS011;8679;50.842;4.322;2023-06-22T08:50:06;3.85;;;2.83;;
17127;SDS011;8679;50.842;4.322;2023-06-22T08:52:36;4.10;;;3.30;;
17127;SDS011;8679;50.842;4.322;2023-06-22T08:55:04;3.78;;;2.92;;
17127;SDS011;8679;50.842;4.322;2023-06-22T08:57:30;5.00;;;3.10;;
17127;SDS011;8679;50.842;4.322;2023-06-22T08:59:57;4.82;;;2.90;;
17127;SDS011;8679;50.842;4.322;2023-06-22T09:02:26;4.90;;;2.53;;
17127;SDS011;8679;50.842;4.322;2023-06-22T09:04:56;5.03;;;3.38;;
17127;SDS011;8679;50.842;4.322;2023-06-22T09:07:22;5.57;;;3.05;;
17127;SDS011;8679;50.842;4.322;2023-06-22T09:09:49;4.03;;;3.05;;
17127;SDS011;8679;50.842;4.322;2023-06-22T09:12:16;6.88;;;2.88;;
17127;SDS011;8679;50.842;4.322;2023-06-22T09:14:42;8.90;;;4.32;;
17127;SDS011;8679;50.842;4.322;2023-06-22T09:17:08;6.45;;;3.38;;
17127;SDS011;8679;50.842;4.322;2023-06-22T09:19:33;4.45;;;3.22;;
17127;SDS011;8679;50.842;4.322;2023-06-22T09:21:59;5.05;;;3.70;;
17127;SDS011;8679;50.842;4.322;2023-06-22T09:24:25;5.53;;;3.40;;
17127;SDS011;8679;50.842;4.322;2023-06-22T09:26:51;6.00;;;3.85;;
17127;SDS011;8679;50.842;4.322;2023-06-22T09:29:16;3.97;;;2.70;;
17127;SDS011;8679;50.842;4.322;2023-06-22T09:31:42;4.28;;;2.90;;
17127;SDS011;8679;50.842;4.322;2023-06-22T09:34:09;4.32;;;2.92;;
17127;SDS011;8679;50.842;4.322;2023-06-22T09:36:34;4.88;;;3.25;;
17127;SDS011;8679;50.842;4.322;2023-06-22T09:39:00;4.20;;;3.38;;
17127;SDS011;8679;50.842;4.322;2023-06-22T09:41:30;5.03;;;3.17;;
17127;SDS011;8679;50.842;4.322;2023-06-22T09:43:56;5.72;;;3.60;;
17127;SDS011;8679;50.842;4.322;2023-06-22T09:46:22;9.77;;;5.68;;
17127;SDS011;8679;50.842;4.322;2023-06-22T09:48:50;5.57;;;4.47;;
17127;SDS011;8679;50.842;4.322;2023-06-22T09:51:16;6.95;;;4.10;;
17127;SDS011;8679;50.842;4.322;2023-06-22T09:53:41;6.45;;;3.42;;
17127;SDS011;8679;50.842;4.322;2023-06-22T09:56:07;5.15;;;3.38;;
17127;SDS011;8679;50.842;4.322;2023-06-22T09:58:39;4.78;;;3.47;;
17127;SDS011;8679;50.842;4.322;2023-06-22T10:01:08;8.35;;;4.03;;
17127;SDS011;8679;50.842;4.322;2023-06-22T10:03:35;7.40;;;4.28;;
17127;SDS011;8679;50.842;4.322;2023-06-22T10:06:01;5.15;;;3.50;;
17127;SDS011;8679;50.842;4.322;2023-06-22T10:08:28;4.55;;;3.45;;
17127;SDS011;8679;50.842;4.322;2023-06-22T10:10:53;5.57;;;3.63;;
17127;SDS011;8679;50.842;4.322;2023-06-22T10:13:19;5.45;;;3.90;;
17127;SDS011;8679;50.842;4.322;2023-06-22T10:15:45;6.05;;;4.05;;
17127;SDS011;8679;50.842;4.322;2023-06-22T10:18:17;5.93;;;4.18;;
17127;SDS011;8679;50.842;4.322;2023-06-22T10:20:44;3.80;;;3.22;;
17127;SDS011;8679;50.842;4.322;2023-06-22T10:23:16;5.72;;;3.10;;
17127;SDS011;8679;50.842;4.322;2023-06-22T10:25:42;4.47;;;3.42;;
17127;SDS011;8679;50.842;4.322;2023-06-22T10:28:07;6.78;;;3.65;;
17127;SDS011;8679;50.842;4.322;2023-06-22T10:30:33;5.32;;;3.58;;
17127;SDS011;8679;50.842;4.322;2023-06-22T10:32:59;5.60;;;3.17;;
17127;SDS011;8679;50.842;4.322;2023-06-22T10:35:24;3.80;;;2.83;;
17127;SDS011;8679;50.842;4.322;2023-06-22T10:37:50;7.00;;;3.58;;
17127;SDS011;8679;50.842;4.322;2023-06-22T10:40:16;5.15;;;2.85;;
17127;SDS011;8679;50.842;4.322;2023-06-22T10:42:43;3.60;;;2.70;;
17127;SDS011;8679;50.842;4.322;2023-06-22T10:45:09;5.50;;;3.08;;
17127;SDS011;8679;50.842;4.322;2023-06-22T10:47:36;4.05;;;3.15;;
17127;SDS011;8679;50.842;4.322;2023-06-22T10:50:02;4.18;;;3.40;;
17127;SDS011;8679;50.842;4.322;2023-06-22T10:52:28;3.80;;;3.22;;
17127;SDS011;8679;50.842;4.322;2023-06-22T10:54:54;4.57;;;3.40;;
17127;SDS011;8679;50.842;4.322;2023-06-22T10:57:21;5.20;;;3.63;;
17127;SDS011;8679;50.842;4.322;2023-06-22T10:59:47;5.30;;;3.75;;
17127;SDS011;8679;50.842;4.322;2023-06-22T11:02:13;5.72;;;3.75;;
17127;SDS011;8679;50.842;4.322;2023-06-22T11:04:38;5.30;;;3.38;;
17127;SDS011;8679;50.842;4.322;2023-06-22T11:07:04;6.53;;;4.00;;
17127;SDS011;8679;50.842;4.322;2023-06-22T11:09:30;4.85;;;3.38;;
17127;SDS011;8679;50.842;4.322;2023-06-22T11:11:56;6.30;;;4.07;;
17127;SDS011;8679;50.842;4.322;2023-06-22T11:14:24;4.50;;;4.03;;
17127;SDS011;8679;50.842;4.322;2023-06-22T11:16:50;4.40;;;3.58;;
17127;SDS011;8679;50.842;4.322;2023-06-22T11:19:16;5.22;;;3.97;;
17127;SDS011;8679;50.842;4.322;2023-06-22T11:21:42;8.05;;;4.78;;
17127;SDS011;8679;50.842;4.322;2023-06-22T11:24:08;6.63;;;4.43;;
17127;SDS011;8679;50.842;4.322;2023-06-22T11:26:34;9.55;;;4.93;;
17127;SDS011;8679;50.842;4.322;2023-06-22T11:29:00;6.25;;;4.40;;
17127;SDS011;8679;50.842;4.322;2023-06-22T11:31:26;5.75;;;4.30;;
17127;SDS011;8679;50.842;4.322;2023-06-22T11:33:52;6.55;;;4.15;;
17127;SDS011;8679;50.842;4.322;2023-06-22T11:36:18;7.97;;;4.43;;
17127;SDS011;8679;50.842;4.322;2023-06-22T11:38:45;12.40;;;7.03;;
17127;SDS011;8679;50.842;4.322;2023-06-22T11:41:10;5.05;;;4.15;;
17127;SDS011;8679;50.842;4.322;2023-06-22T11:43:36;6.10;;;3.42;;
17127;SDS011;8679;50.842;4.322;2023-06-22T11:46:02;5.55;;;3.58;;
17127;SDS011;8679;50.842;4.322;2023-06-22T11:48:28;5.80;;;4.20;;
17127;SDS011;8679;50.842;4.322;2023-06-22T11:50:55;4.22;;;3.20;;
17127;SDS011;8679;50.842;4.322;2023-06-22T11:53:21;6.10;;;3.92;;
17127;SDS011;8679;50.842;4.322;2023-06-22T11:55:49;4.05;;;3.03;;
17127;SDS011;8679;50.842;4.322;2023-06-22T11:58:15;5.72;;;2.90;;
17127;SDS011;8679;50.842;4.322;2023-06-22T12:00:40;6.68;;;3.92;;
17127;SDS011;8679;50.842;4.322;2023-06-22T12:03:07;5.15;;;3.78;;
17127;SDS011;8679;50.842;4.322;2023-06-22T12:05:33;4.45;;;3.40;;
17127;SDS011;8679;50.842;4.322;2023-06-22T12:07:58;5.18;;;2.92;;
17127;SDS011;8679;50.842;4.322;2023-06-22T12:10:27;4.57;;;3.22;;
17127;SDS011;8679;50.842;4.322;2023-06-22T12:12:55;4.00;;;3.10;;
17127;SDS011;8679;50.842;4.322;2023-06-22T12:15:23;6.32;;;3.88;;
17127;SDS011;8679;50.842;4.322;2023-06-22T12:17:48;6.38;;;4.07;;
17127;SDS011;8679;50.842;4.322;2023-06-22T12:20:14;4.45;;;3.55;;
17127;SDS011;8679;50.842;4.322;2023-06-22T12:22:40;4.50;;;3.40;;
17127;SDS011;8679;50.842;4.322;2023-06-22T12:25:06;5.80;;;4.15;;
17127;SDS011;8679;50.842;4.322;2023-06-22T12:27:32;4.18;;;2.75;;
17127;SDS011;8679;50.842;4.322;2023-06-22T12:29:59;6.13;;;4.13;;
17127;SDS011;8679;50.842;4.322;2023-06-22T12:32:24;11.82;;;6.68;;
17127;SDS011;8679;50.842;4.322;2023-06-22T12:34:50;4.55;;;3.63;;
17127;SDS011;8679;50.842;4.322;2023-06-22T12:37:16;5.47;;;3.33;;
17127;SDS011;8679;50.842;4.322;2023-06-22T12:39:42;7.03;;;4.22;;
17127;SDS011;8679;50.842;4.322;2023-06-22T12:42:07;7.55;;;4.00;;
17127;SDS011;8679;50.842;4.322;2023-06-22T12:44:43;5.95;;;4.47;;
17127;SDS011;8679;50.842;4.322;2023-06-22T12:47:08;5.22;;;4.22;;
17127;SDS011;8679;50.842;4.322;2023-06-22T12:49:35;4.82;;;3.88;;
17127;SDS011;8679;50.842;4.322;2023-06-22T12:52:01;6.85;;;4.10;;
17127;SDS011;8679;50.842;4.322;2023-06-22T12:54:27;5.78;;;3.70;;
17127;SDS011;8679;50.842;4.322;2023-06-22T12:56:54;7.18;;;4.75;;
17127;SDS011;8679;50.842;4.322;2023-06-22T12:59:20;6.70;;;4.63;;
17127;SDS011;8679;50.842;4.322;2023-06-22T13:01:45;5.80;;;4.10;;
17127;SDS011;8679;50.842;4.322;2023-06-22T13:04:11;5.97;;;3.47;;
17127;SDS011;8679;50.842;4.322;2023-06-22T13:06:40;5.50;;;4.35;;
17127;SDS011;8679;50.842;4.322;2023-06-22T13:09:06;8.80;;;6.43;;
17127;SDS011;8679;50.842;4.322;2023-06-22T13:11:32;6.38;;;5.10;;
17127;SDS011;8679;50.842;4.322;2023-06-22T13:13:58;8.15;;;5.22;;
17127;SDS011;8679;50.842;4.322;2023-06-22T13:16:23;6.60;;;4.85;;
17127;SDS011;8679;50.842;4.322;2023-06-22T13:18:49;8.80;;;5.50;;
17127;SDS011;8679;50.842;4.322;2023-06-22T13:21:14;8.40;;;5.50;;
17127;SDS011;8679;50.842;4.322;2023-06-22T13:23:40;7.93;;;5.57;;
17127;SDS011;8679;50.842;4.322;2023-06-22T13:26:07;8.25;;;5.30;;
17127;SDS011;8679;50.842;4.322;2023-06-22T13:28:32;7.22;;;5.47;;
17127;SDS011;8679;50.842;4.322;2023-06-22T13:30:58;6.32;;;4.60;;
17127;SDS011;8679;50.842;4.322;2023-06-22T13:33:24;7.95;;;5.00;;
17127;SDS011;8679;50.842;4.322;2023-06-22T13:35:49;8.23;;;4.70;;
17127;SDS011;8679;50.842;4.322;2023-06-22T13:38:15;6.25;;;4.07;;
17127;SDS011;8679;50.842;4.322;2023-06-22T13:40:42;8.02;;;5.63;;
17127;SDS011;8679;50.842;4.322;2023-06-22T13:43:08;6.35;;;4.82;;
17127;SDS011;8679;50.842;4.322;2023-06-22T13:45:34;6.22;;;4.78;;
17127;SDS011;8679;50.842;4.322;2023-06-22T13:48:00;6.90;;;5.40;;
17127;SDS011;8679;50.842;4.322;2023-06-22T13:50:26;7.40;;;4.97;;
17127;SDS011;8679;50.842;4.322;2023-06-22T13:52:52;6.53;;;4.25;;
17127;SDS011;8679;50.842;4.322;2023-06-22T13:55:17;6.78;;;4.75;;
17127;SDS011;8679;50.842;4.322;2023-06-22T13:57:46;6.28;;;4.40;;
17127;SDS011;8679;50.842;4.322;2023-06-22T14:00:11;5.55;;;4.13;;
17127;SDS011;8679;50.842;4.322;2023-06-22T14:02:38;6.95;;;4.18;;
17127;SDS011;8679;50.842;4.322;2023-06-22T14:05:04;5.90;;;4.03;;
17127;SDS011;8679;50.842;4.322;2023-06-22T14:07:31;6.40;;;4.68;;
17127;SDS011;8679;50.842;4.322;2023-06-22T14:09:56;6.60;;;5.15;;
17127;SDS011;8679;50.842;4.322;2023-06-22T14:12:23;6.22;;;4.45;;
17127;SDS011;8679;50.842;4.322;2023-06-22T14:14:49;6.45;;;4.28;;
17127;SDS011;8679;50.842;4.322;2023-06-22T14:17:14;6.32;;;4.32;;
17127;SDS011;8679;50.842;4.322;2023-06-22T14:19:40;4.97;;;3.97;;
17127;SDS011;8679;50.842;4.322;2023-06-22T14:22:06;5.90;;;3.97;;
17127;SDS011;8679;50.842;4.322;2023-06-22T14:24:31;9.93;;;5.15;;
17127;SDS011;8679;50.842;4.322;2023-06-22T14:26:57;5.05;;;4.25;;
17127;SDS011;8679;50.842;4.322;2023-06-22T14:29:23;8.95;;;4.85;;
17127;SDS011;8679;50.842;4.322;2023-06-22T14:31:48;6.28;;;4.47;;
17127;SDS011;8679;50.842;4.322;2023-06-22T14:34:14;7.80;;;4.57;;
17127;SDS011;8679;50.842;4.322;2023-06-22T14:36:41;8.70;;;4.82;;
17127;SDS011;8679;50.842;4.322;2023-06-22T14:39:07;5.43;;;4.07;;
17127;SDS011;8679;50.842;4.322;2023-06-22T14:41:33;7.38;;;4.75;;
17127;SDS011;8679;50.842;4.322;2023-06-22T14:43:59;6.65;;;4.65;;
17127;SDS011;8679;50.842;4.322;2023-06-22T14:46:25;6.78;;;4.90;;
17127;SDS011;8679;50.842;4.322;2023-06-22T14:48:50;8.68;;;5.93;;
17127;SDS011;8679;50.842;4.322;2023-06-22T14:51:16;8.45;;;4.93;;
17127;SDS011;8679;50.842;4.322;2023-06-22T14:53:43;13.00;;;8.60;;
17127;SDS011;8679;50.842;4.322;2023-06-22T14:56:09;11.55;;;6.50;;
17127;SDS011;8679;50.842;4.322;2023-06-22T14:58:35;9.75;;;6.05;;
17127;SDS011;8679;50.842;4.322;2023-06-22T15:01:01;7.18;;;5.43;;
17127;SDS011;8679;50.842;4.322;2023-06-22T15:03:27;9.82;;;5.63;;
17127;SDS011;8679;50.842;4.322;2023-06-22T15:05:55;9.85;;;5.90;;